sensor_id;sensor_type;location;lat;lon;timestamp;pressure;altitude;pressure_sealevel;temperature;humidity
3096;BME280;1558;42.700;23.360;2023-05-09T00:01:12;95612.75;;;11.78;100.00
3096;BME280;1558;42.700;23.360;2023-05-09T00:03:41;95616.53;;;11.86;100.00
3096;BME280;1558;42.700;23.360;2023-05-09T00:06:09;95618.63;;;11.80;100.00
3096;BME280;1558;42.700;23.360;2023-05-09T00:08:39;95607.34;;;11.78;100.00
3096;BME280;1558;42.700;23.360;2023-05-09T00:11:07;95604.13;;;11.85;100.00
3096;BME280;1558;42.700;23.360;2023-05-09T00:13:36;95604.78;;;11.82;100.00
3096;BME280;1558;42.700;23.360;2023-05-09T00:16:05;95619.16;;;11.74;100.00
3096;BME280;1558;42.700;23.360;2023-05-09T00:18:33;95612.53;;;11.63;100.00
3096;BME280;1558;42.700;23.360;2023-05-09T00:21:02;95611.63;;;11.58;100.00
3096;BME280;1558;42.700;23.360;2023-05-09T00:23:30;95618.59;;;11.60;100.00
3096;BME280;1558;42.700;23.360;2023-05-09T00:25:58;95609.50;;;11.64;100.00
3096;BME280;1558;42.700;23.360;2023-05-09T00:28:27;95605.19;;;11.72;100.00
3096;BME280;1558;42.700;23.360;2023-05-09T00:30:56;95591.19;;;11.70;100.00
3096;BME280;1558;42.700;23.360;2023-05-09T00:33:24;95601.34;;;11.73;100.00
3096;BME280;1558;42.700;23.360;2023-05-09T00:35:53;95598.66;;;11.73;100.00
3096;BME280;1558;42.700;23.360;2023-05-09T00:38:22;95603.41;;;11.76;100.00
3096;BME280;1558;42.700;23.360;2023-05-09T00:40:50;95602.66;;;11.67;100.00
3096;BME280;1558;42.700;23.360;2023-05-09T00:43:19;95595.66;;;11.66;100.00
3096;BME280;1558;42.700;23.360;2023-05-09T00:45:48;95597.44;;;11.62;100.00
3096;BME280;1558;42.700;23.360;2023-05-09T00:48:17;95578.53;;;11.62;100.00
3096;BME280;1558;42.700;23.360;2023-05-09T00:50:47;95604.09;;;11.64;100.00
3096;BME280;1558;42.700;23.360;2023-05-09T00:53:18;95599.91;;;11.54;100.00
3096;BME280;1558;42.700;23.360;2023-05-09T00:55:47;95592.25;;;11.56;100.00
3096;BME280;1558;42.700;23.360;2023-05-09T00:58:15;95602.66;;;11.67;100.00
3096;BME280;1558;42.700;23.360;2023-05-09T01:00:45;95600.16;;;11.62;100.00
3096;BME280;1558;42.700;23.360;2023-05-09T01:03:13;95585.53;;;11.42;100.00
3096;BME280;1558;42.700;23.360;2023-05-09T01:05:53;95590.00;;;11.38;100.00
3096;BME280;1558;42.700;23.360;2023-05-09T01:08:33;95598.13;;;11.38;100.00
3096;BME280;1558;42.700;23.360;2023-05-09T01:11:09;95587.63;;;11.36;100.00
3096;BME280;1558;42.700;23.360;2023-05-09T01:13:51;95585.78;;;11.28;100.00
3096;BME280;1558;42.700;23.360;2023-05-09T01:16:27;95593.97;;;11.40;100.00
3096;BME280;1558;42.700;23.360;2023-05-09T01:19:02;95591.97;;;11.49;100.00
3096;BME280;1558;42.700;23.360;2023-05-09T01:21:36;95596.75;;;11.52;100.00
3096;BME280;1558;42.700;23.360;2023-05-09T01:27:31;95594.84;;;11.74;100.00
3096;BME280;1558;42.700;23.360;2023-05-09T01:30:04;95588.28;;;11.75;100.00
3096;BME280;1558;42.700;23.360;2023-05-09T01:32:34;95587.00;;;11.81;100.00
3096;BME280;1558;42.700;23.360;2023-05-09T01:35:06;95596.06;;;11.97;100.00
3096;BME280;1558;42.700;23.360;2023-05-09T01:37:38;95600.13;;;12.03;100.00
3096;BME280;1558;42.700;23.360;2023-05-09T01:40:12;95600.50;;;12.13;100.00
3096;BME280;1558;42.700;23.360;2023-05-09T01:42:44;95594.53;;;12.20;100.00
3096;BME280;1558;42.700;23.360;2023-05-09T01:45:16;95576.84;;;12.10;100.00
3096;BME280;1558;42.700;23.360;2023-05-09T01:47:46;95585.78;;;12.23;100.00
3096;BME280;1558;42.700;23.360;2023-05-09T01:50:17;95598.84;;;12.21;100.00
3096;BME280;1558;42.700;23.360;2023-05-09T01:52:48;95608.06;;;12.20;100.00
3096;BME280;1558;42.700;23.360;2023-05-09T01:55:17;95605.81;;;12.22;100.00
3096;BME280;1558;42.700;23.360;2023-05-09T01:57:47;95602.59;;;12.29;100.00
3096;BME280;1558;42.700;23.360;2023-05-09T02:00:17;95607.88;;;12.25;100.00
3096;BME280;1558;42.700;23.360;2023-05-09T02:02:46;95581.94;;;12.12;100.00
3096;BME280;1558;42.700;23.360;2023-05-09T02:05:16;95605.81;;;12.22;100.00
3096;BME280;1558;42.700;23.360;2023-05-09T02:07:46;95592.75;;;12.12;100.00
3096;BME280;1558;42.700;23.360;2023-05-09T02:10:14;95582.69;;;12.12;100.00
3096;BME280;1558;42.700;23.360;2023-05-09T02:12:42;95600.66;;;12.29;100.00
3096;BME280;1558;42.700;23.360;2023-05-09T02:15:10;95598.19;;;12.36;100.00
3096;BME280;1558;42.700;23.360;2023-05-09T02:17:40;95584.78;;;12.28;100.00
3096;BME280;1558;42.700;23.360;2023-05-09T02:20:09;95601.38;;;12.38;100.00
3096;BME280;1558;42.700;23.360;2023-05-09T02:22:38;95603.06;;;12.43;100.00
3096;BME280;1558;42.700;23.360;2023-05-09T02:25:08;95583.69;;;12.41;100.00
3096;BME280;1558;42.700;23.360;2023-05-09T02:27:37;95591.47;;;12.42;100.00
3096;BME280;1558;42.700;23.360;2023-05-09T02:30:08;95600.13;;;12.36;100.00
3096;BME280;1558;42.700;23.360;2023-05-09T02:32:39;95591.88;;;12.32;100.00
3096;BME280;1558;42.700;23.360;2023-05-09T02:35:10;95604.41;;;12.37;100.00
3096;BME280;1558;42.700;23.360;2023-05-09T02:37:40;95605.19;;;12.37;100.00
3096;BME280;1558;42.700;23.360;2023-05-09T02:40:09;95606.44;;;12.40;100.00
3096;BME280;1558;42.700;23.360;2023-05-09T02:42:38;95605.00;;;12.54;100.00
3096;BME280;1558;42.700;23.360;2023-05-09T02:45:07;95610.88;;;12.56;100.00
3096;BME280;1558;42.700;23.360;2023-05-09T02:47:37;95605.81;;;12.55;100.00
3096;BME280;1558;42.700;23.360;2023-05-09T02:50:07;95578.50;;;12.36;100.00
3096;BME280;1558;42.700;23.360;2023-05-09T02:52:35;95594.03;;;12.39;100.00
3096;BME280;1558;42.700;23.360;2023-05-09T02:55:04;95606.34;;;12.48;100.00
3096;BME280;1558;42.700;23.360;2023-05-09T02:57:32;95606.34;;;12.48;100.00
3096;BME280;1558;42.700;23.360;2023-05-09T03:00:00;95610.03;;;12.44;100.00
3096;BME280;1558;42.700;23.360;2023-05-09T03:02:28;95612.97;;;12.39;100.00
3096;BME280;1558;42.700;23.360;2023-05-09T03:04:57;95607.44;;;12.35;100.00
3096;BME280;1558;42.700;23.360;2023-05-09T03:07:26;95619.84;;;12.36;100.00
3096;BME280;1558;42.700;23.360;2023-05-09T03:09:54;95608.56;;;12.34;100.00
3096;BME280;1558;42.700;23.360;2023-05-09T03:12:22;95619.97;;;12.40;100.00
3096;BME280;1558;42.700;23.360;2023-05-09T03:14:50;95604.25;;;12.21;100.00
3096;BME280;1558;42.700;23.360;2023-05-09T03:17:18;95618.13;;;12.32;100.00
3096;BME280;1558;42.700;23.360;2023-05-09T03:19:47;95639.56;;;12.37;100.00
3096;BME280;1558;42.700;23.360;2023-05-09T03:22:15;95638.56;;;12.41;100.00
3096;BME280;1558;42.700;23.360;2023-05-09T03:24:44;95645.66;;;12.34;100.00
3096;BME280;1558;42.700;23.360;2023-05-09T03:27:12;95627.44;;;12.22;100.00
3096;BME280;1558;42.700;23.360;2023-05-09T03:29:40;95654.09;;;12.32;100.00
3096;BME280;1558;42.700;23.360;2023-05-09T03:32:09;95626.44;;;12.14;100.00
3096;BME280;1558;42.700;23.360;2023-05-09T03:34:40;95658.84;;;12.35;100.00
3096;BME280;1558;42.700;23.360;2023-05-09T03:37:08;95638.22;;;12.31;100.00
3096;BME280;1558;42.700;23.360;2023-05-09T03:39:37;95669.47;;;12.40;100.00
3096;BME280;1558;42.700;23.360;2023-05-09T03:42:06;95657.69;;;12.36;100.00
3096;BME280;1558;42.700;23.360;2023-05-09T03:44:34;95657.13;;;12.31;100.00
3096;BME280;1558;42.700;23.360;2023-05-09T03:47:02;95666.16;;;12.35;100.00
3096;BME280;1558;42.700;23.360;2023-05-09T03:49:30;95663.66;;;12.30;100.00
3096;BME280;1558;42.700;23.360;2023-05-09T03:51:58;95657.88;;;12.19;100.00
3096;BME280;1558;42.700;23.360;2023-05-09T03:54:26;95656.75;;;12.20;100.00
3096;BME280;1558;42.700;23.360;2023-05-09T03:56:54;95630.59;;;11.91;100.00
3096;BME280;1558;42.700;23.360;2023-05-09T03:59:23;95654.34;;;12.06;100.00
3096;BME280;1558;42.700;23.360;2023-05-09T04:01:51;95671.81;;;12.09;100.00
3096;BME280;1558;42.700;23.360;2023-05-09T04:04:20;95659.66;;;12.15;100.00
3096;BME280;1558;42.700;23.360;2023-05-09T04:06:48;95662.59;;;12.22;100.00
3096;BME280;1558;42.700;23.360;2023-05-09T04:09:16;95664.31;;;12.27;100.00
3096;BME280;1558;42.700;23.360;2023-05-09T04:11:45;95673.16;;;12.36;100.00
3096;BME280;1558;42.700;23.360;2023-05-09T04:14:13;95663.25;;;12.40;100.00
3096;BME280;1558;42.700;23.360;2023-05-09T04:16:42;95666.31;;;12.38;100.00
3096;BME280;1558;42.700;23.360;2023-05-09T04:19:10;95671.47;;;12.43;100.00
3096;BME280;1558;42.700;23.360;2023-05-09T04:21:38;95677.88;;;12.39;100.00
3096;BME280;1558;42.700;23.360;2023-05-09T04:24:07;95669.78;;;12.39;100.00
3096;BME280;1558;42.700;23.360;2023-05-09T04:26:35;95672.97;;;12.53;100.00
3096;BME280;1558;42.700;23.360;2023-05-09T04:29:04;95679.88;;;12.50;100.00
3096;BME280;1558;42.700;23.360;2023-05-09T04:31:32;95677.16;;;12.62;100.00
3096;BME280;1558;42.700;23.360;2023-05-09T04:34:02;95676.28;;;12.70;100.00
3096;BME280;1558;42.700;23.360;2023-05-09T04:36:30;95676.75;;;12.72;100.00
3096;BME280;1558;42.700;23.360;2023-05-09T04:38:59;95675.41;;;12.78;100.00
3096;BME280;1558;42.700;23.360;2023-05-09T04:41:29;95666.06;;;12.76;100.00
3096;BME280;1558;42.700;23.360;2023-05-09T04:43:58;95681.75;;;12.82;100.00
3096;BME280;1558;42.700;23.360;2023-05-09T04:46:26;95664.94;;;12.89;100.00
3096;BME280;1558;42.700;23.360;2023-05-09T04:48:54;95671.38;;;12.97;100.00
3096;BME280;1558;42.700;23.360;2023-05-09T04:51:24;95643.50;;;12.84;100.00
3096;BME280;1558;42.700;23.360;2023-05-09T04:53:52;95677.03;;;13.04;100.00
3096;BME280;1558;42.700;23.360;2023-05-09T04:56:20;95654.25;;;13.05;100.00
3096;BME280;1558;42.700;23.360;2023-05-09T04:58:48;95670.41;;;13.13;100.00
3096;BME280;1558;42.700;23.360;2023-05-09T05:01:17;95666.84;;;13.01;100.00
3096;BME280;1558;42.700;23.360;2023-05-09T05:03:45;95658.94;;;12.71;100.00
3096;BME280;1558;42.700;23.360;2023-05-09T05:06:13;95666.16;;;12.79;100.00
3096;BME280;1558;42.700;23.360;2023-05-09T05:08:43;95655.22;;;12.76;100.00
3096;BME280;1558;42.700;23.360;2023-05-09T05:11:11;95664.38;;;12.96;100.00
3096;BME280;1558;42.700;23.360;2023-05-09T05:13:39;95677.28;;;13.11;100.00
3096;BME280;1558;42.700;23.360;2023-05-09T05:16:07;95612.16;;;12.83;100.00
3096;BME280;1558;42.700;23.360;2023-05-09T05:18:35;95671.50;;;13.73;100.00
3096;BME280;1558;42.700;23.360;2023-05-09T05:21:03;95672.31;;;13.37;100.00
3096;BME280;1558;42.700;23.360;2023-05-09T05:23:31;95669.16;;;13.11;100.00
3096;BME280;1558;42.700;23.360;2023-05-09T05:26:01;95667.34;;;13.27;100.00
3096;BME280;1558;42.700;23.360;2023-05-09T05:28:29;95676.41;;;13.43;100.00
3096;BME280;1558;42.700;23.360;2023-05-09T05:30:57;95675.03;;;13.49;100.00
3096;BME280;1558;42.700;23.360;2023-05-09T05:33:25;95673.69;;;13.43;100.00
3096;BME280;1558;42.700;23.360;2023-05-09T05:35:53;95678.19;;;13.51;100.00
3096;BME280;1558;42.700;23.360;2023-05-09T05:38:21;95673.69;;;13.43;100.00
3096;BME280;1558;42.700;23.360;2023-05-09T05:40:49;95674.47;;;13.31;100.00
3096;BME280;1558;42.700;23.360;2023-05-09T05:43:18;95679.88;;;13.43;100.00
3096;BME280;1558;42.700;23.360;2023-05-09T05:45:46;95679.75;;;13.64;100.00
3096;BME280;1558;42.700;23.360;2023-05-09T05:48:14;95677.19;;;13.95;100.00
3096;BME280;1558;42.700;23.360;2023-05-09T05:50:42;95682.34;;;14.52;100.00
3096;BME280;1558;42.700;23.360;2023-05-09T05:53:10;95665.41;;;14.86;100.00
3096;BME280;1558;42.700;23.360;2023-05-09T05:55:38;95664.63;;;15.17;100.00
3096;BME280;1558;42.700;23.360;2023-05-09T05:58:06;95671.63;;;14.87;100.00
3096;BME280;1558;42.700;23.360;2023-05-09T06:00:36;95637.63;;;14.62;100.00
3096;BME280;1558;42.700;23.360;2023-05-09T06:03:04;95602.72;;;14.33;100.00
3096;BME280;1558;42.700;23.360;2023-05-09T06:05:32;95628.03;;;14.24;100.00
3096;BME280;1558;42.700;23.360;2023-05-09T06:08:00;95656.03;;;15.15;100.00
3096;BME280;1558;42.700;23.360;2023-05-09T06:10:28;95657.66;;;15.67;100.00
3096;BME280;1558;42.700;23.360;2023-05-09T06:12:56;95674.63;;;15.44;100.00
3096;BME280;1558;42.700;23.360;2023-05-09T06:15:24;95545.41;;;14.06;100.00
3096;BME280;1558;42.700;23.360;2023-05-09T06:17:54;95626.97;;;14.41;100.00
3096;BME280;1558;42.700;23.360;2023-05-09T06:20:40;95672.69;;;14.27;100.00
3096;BME280;1558;42.700;23.360;2023-05-09T06:23:08;95670.84;;;14.03;100.00
3096;BME280;1558;42.700;23.360;2023-05-09T06:25:36;95665.19;;;14.08;100.00
3096;BME280;1558;42.700;23.360;2023-05-09T06:28:04;95651.91;;;13.91;100.00
3096;BME280;1558;42.700;23.360;2023-05-09T06:30:32;95670.66;;;13.96;100.00
3096;BME280;1558;42.700;23.360;2023-05-09T06:33:02;95668.78;;;14.12;100.00
3096;BME280;1558;42.700;23.360;2023-05-09T06:35:30;95675.13;;;14.16;100.00
3096;BME280;1558;42.700;23.360;2023-05-09T06:37:58;95652.50;;;14.12;100.00
3096;BME280;1558;42.700;23.360;2023-05-09T06:40:26;95610.88;;;14.20;100.00
3096;BME280;1558;42.700;23.360;2023-05-09T06:42:54;95647.19;;;15.03;100.00
3096;BME280;1558;42.700;23.360;2023-05-09T06:45:22;95656.47;;;15.33;100.00
3096;BME280;1558;42.700;23.360;2023-05-09T06:47:50;95668.41;;;15.79;100.00
3096;BME280;1558;42.700;23.360;2023-05-09T06:50:20;95668.13;;;16.18;100.00
3096;BME280;1558;42.700;23.360;2023-05-09T06:52:48;95659.88;;;16.15;100.00
3096;BME280;1558;42.700;23.360;2023-05-09T06:55:16;95644.47;;;15.49;100.00
3096;BME280;1558;42.700;23.360;2023-05-09T06:57:44;95668.25;;;15.72;100.00
3096;BME280;1558;42.700;23.360;2023-05-09T07:00:13;95665.00;;;15.82;100.00
3096;BME280;1558;42.700;23.360;2023-05-09T07:02:42;95612.00;;;15.56;100.00
3096;BME280;1558;42.700;23.360;2023-05-09T07:05:10;95670.56;;;15.70;100.00
3096;BME280;1558;42.700;23.360;2023-05-09T07:07:39;95658.91;;;15.53;100.00
3096;BME280;1558;42.700;23.360;2023-05-09T07:10:08;95662.59;;;15.45;100.00
3096;BME280;1558;42.700;23.360;2023-05-09T07:12:39;95655.25;;;15.15;100.00
3096;BME280;1558;42.700;23.360;2023-05-09T07:15:08;95642.88;;;14.86;100.00
3096;BME280;1558;42.700;23.360;2023-05-09T07:17:37;95656.34;;;14.67;100.00
3096;BME280;1558;42.700;23.360;2023-05-09T07:20:06;95641.53;;;14.64;100.00
3096;BME280;1558;42.700;23.360;2023-05-09T07:22:34;95657.50;;;14.81;100.00
3096;BME280;1558;42.700;23.360;2023-05-09T07:25:06;95667.31;;;14.86;100.00
3096;BME280;1558;42.700;23.360;2023-05-09T07:27:35;95663.38;;;14.68;100.00
3096;BME280;1558;42.700;23.360;2023-05-09T07:30:03;95643.00;;;14.46;100.00
3096;BME280;1558;42.700;23.360;2023-05-09T07:32:32;95646.41;;;14.43;100.00
3096;BME280;1558;42.700;23.360;2023-05-09T07:35:00;95662.31;;;14.57;100.00
3096;BME280;1558;42.700;23.360;2023-05-09T07:37:28;95650.47;;;14.49;100.00
3096;BME280;1558;42.700;23.360;2023-05-09T07:39:57;95670.38;;;14.69;100.00
3096;BME280;1558;42.700;23.360;2023-05-09T07:42:27;95668.00;;;14.67;100.00
3096;BME280;1558;42.700;23.360;2023-05-09T07:44:55;95617.63;;;14.26;100.00
3096;BME280;1558;42.700;23.360;2023-05-09T07:47:24;95670.44;;;14.57;100.00
3096;BME280;1558;42.700;23.360;2023-05-09T07:49:52;95678.59;;;14.57;100.00
3096;BME280;1558;42.700;23.360;2023-05-09T07:52:21;95681.16;;;14.38;100.00
3096;BME280;1558;42.700;23.360;2023-05-09T07:54:49;95661.72;;;14.36;100.00
3096;BME280;1558;42.700;23.360;2023-05-09T07:57:17;95677.31;;;14.39;100.00
3096;BME280;1558;42.700;23.360;2023-05-09T07:59:47;95668.50;;;14.30;100.00
3096;BME280;1558;42.700;23.360;2023-05-09T08:02:14;95655.28;;;14.28;100.00
3096;BME280;1558;42.700;23.360;2023-05-09T08:04:42;95664.78;;;14.34;100.00
3096;BME280;1558;42.700;23.360;2023-05-09T08:07:15;95665.13;;;14.33;100.00
3096;BME280;1558;42.700;23.360;2023-05-09T08:09:43;95673.13;;;14.29;100.00
3096;BME280;1558;42.700;23.360;2023-05-09T08:12:12;95678.25;;;14.31;100.00
3096;BME280;1558;42.700;23.360;2023-05-09T08:14:40;95623.41;;;13.97;100.00
3096;BME280;1558;42.700;23.360;2023-05-09T08:17:09;95677.69;;;14.25;100.00
3096;BME280;1558;42.700;23.360;2023-05-09T08:19:37;95671.19;;;14.42;100.00
3096;BME280;1558;42.700;23.360;2023-05-09T08:22:05;95669.09;;;14.51;100.00
3096;BME280;1558;42.700;23.360;2023-05-09T08:24:33;95676.25;;;14.71;100.00
3096;BME280;1558;42.700;23.360;2023-05-09T08:27:02;95653.38;;;14.72;100.00
3096;BME280;1558;42.700;23.360;2023-05-09T08:29:30;95669.00;;;15.06;100.00
3096;BME280;1558;42.700;23.360;2023-05-09T08:31:58;95666.88;;;15.31;100.00
3096;BME280;1558;42.700;23.360;2023-05-09T08:34:28;95672.78;;;15.17;100.00
3096;BME280;1558;42.700;23.360;2023-05-09T08:36:56;95675.50;;;15.48;100.00
3096;BME280;1558;42.700;23.360;2023-05-09T08:39:24;95669.31;;;15.83;100.00
3096;BME280;1558;42.700;23.360;2023-05-09T08:41:57;95661.88;;;15.99;100.00
3096;BME280;1558;42.700;23.360;2023-05-09T08:44:26;95655.22;;;16.15;97.48
3096;BME280;1558;42.700;23.360;2023-05-09T08:46:57;95659.28;;;15.87;97.84
3096;BME280;1558;42.700;23.360;2023-05-09T08:49:28;95621.19;;;15.87;95.82
3096;BME280;1558;42.700;23.360;2023-05-09T08:51:56;95662.59;;;16.34;93.00
3096;BME280;1558;42.700;23.360;2023-05-09T08:54:25;95664.34;;;16.23;92.88
3096;BME280;1558;42.700;23.360;2023-05-09T08:56:54;95668.41;;;16.13;92.76
3096;BME280;1558;42.700;23.360;2023-05-09T08:59:23;95601.63;;;16.19;93.60
3096;BME280;1558;42.700;23.360;2023-05-09T09:01:52;95648.72;;;16.58;91.82
3096;BME280;1558;42.700;23.360;2023-05-09T09:04:21;95642.84;;;16.18;89.72
3096;BME280;1558;42.700;23.360;2023-05-09T09:06:51;95646.63;;;16.33;90.28
3096;BME280;1558;42.700;23.360;2023-05-09T09:09:21;95652.63;;;16.80;88.21
3096;BME280;1558;42.700;23.360;2023-05-09T09:11:50;95654.25;;;17.30;87.24
3096;BME280;1558;42.700;23.360;2023-05-09T09:14:22;95635.16;;;18.08;79.92
3096;BME280;1558;42.700;23.360;2023-05-09T09:16:53;95632.91;;;17.58;78.18
3096;BME280;1558;42.700;23.360;2023-05-09T09:19:24;95648.88;;;17.11;80.11
3096;BME280;1558;42.700;23.360;2023-05-09T09:21:58;95637.94;;;16.88;81.91
3096;BME280;1558;42.700;23.360;2023-05-09T09:24:30;95655.59;;;17.92;78.18
3096;BME280;1558;42.700;23.360;2023-05-09T09:27:03;95638.75;;;17.86;75.23
3096;BME280;1558;42.700;23.360;2023-05-09T09:29:32;95650.50;;;17.90;76.62
3096;BME280;1558;42.700;23.360;2023-05-09T09:32:01;95658.59;;;17.83;76.98
3096;BME280;1558;42.700;23.360;2023-05-09T09:34:30;95662.28;;;17.45;77.66
3096;BME280;1558;42.700;23.360;2023-05-09T09:36:59;95596.81;;;17.68;78.31
3096;BME280;1558;42.700;23.360;2023-05-09T09:39:27;95660.13;;;17.09;77.01
3096;BME280;1558;42.700;23.360;2023-05-09T09:42:08;95667.84;;;16.62;82.42
3096;BME280;1558;42.700;23.360;2023-05-09T09:44:39;95619.34;;;17.65;80.11
3096;BME280;1558;42.700;23.360;2023-05-09T09:47:08;95669.28;;;17.95;76.20
3096;BME280;1558;42.700;23.360;2023-05-09T09:49:44;95652.72;;;17.55;76.99
3096;BME280;1558;42.700;23.360;2023-05-09T09:52:22;95660.75;;;16.57;83.20
3096;BME280;1558;42.700;23.360;2023-05-09T09:54:54;95663.03;;;16.55;83.53
3096;BME280;1558;42.700;23.360;2023-05-09T09:57:32;95645.56;;;16.37;85.66
3096;BME280;1558;42.700;23.360;2023-05-09T10:00:00;95646.59;;;15.75;87.49
3096;BME280;1558;42.700;23.360;2023-05-09T10:02:29;95661.25;;;15.71;90.92
3096;BME280;1558;42.700;23.360;2023-05-09T10:05:05;95656.53;;;15.68;89.69
3096;BME280;1558;42.700;23.360;2023-05-09T10:07:35;95635.53;;;15.49;90.32
3096;BME280;1558;42.700;23.360;2023-05-09T10:10:05;95655.56;;;15.76;93.53
3096;BME280;1558;42.700;23.360;2023-05-09T10:12:33;95670.88;;;15.84;92.51
3096;BME280;1558;42.700;23.360;2023-05-09T10:15:04;95652.69;;;15.53;94.07
3096;BME280;1558;42.700;23.360;2023-05-09T10:17:34;95636.91;;;15.27;96.36
3096;BME280;1558;42.700;23.360;2023-05-09T10:20:04;95623.47;;;15.50;94.95
3096;BME280;1558;42.700;23.360;2023-05-09T10:22:35;95660.63;;;15.77;93.10
3096;BME280;1558;42.700;23.360;2023-05-09T10:25:10;95641.81;;;15.88;91.82
3096;BME280;1558;42.700;23.360;2023-05-09T10:27:44;95628.34;;;15.76;91.79
3096;BME280;1558;42.700;23.360;2023-05-09T10:30:16;95634.09;;;16.09;91.50
3096;BME280;1558;42.700;23.360;2023-05-09T10:32:50;95620.97;;;16.14;90.12
3096;BME280;1558;42.700;23.360;2023-05-09T10:35:21;95641.25;;;16.97;88.01
3096;BME280;1558;42.700;23.360;2023-05-09T10:37:55;95630.75;;;16.76;83.57
3096;BME280;1558;42.700;23.360;2023-05-09T10:40:24;95524.22;;;16.17;83.16
3096;BME280;1558;42.700;23.360;2023-05-09T10:42:52;95642.13;;;17.05;81.99
3096;BME280;1558;42.700;23.360;2023-05-09T10:45:21;95632.25;;;16.74;84.19
3096;BME280;1558;42.700;23.360;2023-05-09T10:47:50;95651.66;;;16.31;85.27
3096;BME280;1558;42.700;23.360;2023-05-09T10:50:19;95625.00;;;15.47;90.72
3096;BME280;1558;42.700;23.360;2023-05-09T10:53:09;95646.66;;;15.79;90.24
3096;BME280;1558;42.700;23.360;2023-05-09T10:55:50;95639.88;;;15.53;92.74
3096;BME280;1558;42.700;23.360;2023-05-09T10:58:20;95591.00;;;14.91;95.98
3096;BME280;1558;42.700;23.360;2023-05-09T11:00:50;95654.88;;;15.32;94.75
3096;BME280;1558;42.700;23.360;2023-05-09T11:03:20;95638.59;;;15.01;98.75
3096;BME280;1558;42.700;23.360;2023-05-09T11:05:50;95590.59;;;15.05;97.19
3096;BME280;1558;42.700;23.360;2023-05-09T11:08:24;95647.25;;;15.53;96.32
3096;BME280;1558;42.700;23.360;2023-05-09T11:10:53;95638.16;;;15.30;94.51
3096;BME280;1558;42.700;23.360;2023-05-09T11:13:23;95655.78;;;15.51;96.56
3096;BME280;1558;42.700;23.360;2023-05-09T11:16:08;95649.47;;;15.82;92.21
3096;BME280;1558;42.700;23.360;2023-05-09T11:18:50;95651.56;;;15.23;93.66
3096;BME280;1558;42.700;23.360;2023-05-09T11:21:19;95647.19;;;15.18;96.74
3096;BME280;1558;42.700;23.360;2023-05-09T11:23:49;95650.69;;;15.34;97.11
3096;BME280;1558;42.700;23.360;2023-05-09T11:26:27;95634.91;;;15.24;95.68
3096;BME280;1558;42.700;23.360;2023-05-09T11:28:58;95608.34;;;15.18;94.92
3096;BME280;1558;42.700;23.360;2023-05-09T11:31:28;95656.28;;;15.57;93.60
3096;BME280;1558;42.700;23.360;2023-05-09T11:34:00;95655.25;;;15.46;93.11
3096;BME280;1558;42.700;23.360;2023-05-09T11:36:30;95652.69;;;15.37;91.42
3096;BME280;1558;42.700;23.360;2023-05-09T11:39:03;95651.03;;;15.33;94.11
3096;BME280;1558;42.700;23.360;2023-05-09T11:41:40;95654.13;;;15.47;92.08
3096;BME280;1558;42.700;23.360;2023-05-09T11:44:15;95657.25;;;15.33;93.06
3096;BME280;1558;42.700;23.360;2023-05-09T11:46:45;95599.56;;;15.24;94.34
3096;BME280;1558;42.700;23.360;2023-05-09T11:49:14;95651.28;;;16.13;89.87
3096;BME280;1558;42.700;23.360;2023-05-09T11:51:43;95644.69;;;15.95;88.42
3096;BME280;1558;42.700;23.360;2023-05-09T11:54:13;95651.53;;;15.89;89.71
3096;BME280;1558;42.700;23.360;2023-05-09T11:56:41;95644.84;;;15.67;90.47
3096;BME280;1558;42.700;23.360;2023-05-09T11:59:10;95627.81;;;15.35;90.36
3096;BME280;1558;42.700;23.360;2023-05-09T12:01:40;95628.97;;;15.19;91.86
3096;BME280;1558;42.700;23.360;2023-05-09T12:04:08;95627.53;;;15.25;94.67
3096;BME280;1558;42.700;23.360;2023-05-09T12:06:36;95654.63;;;15.52;93.48
3096;BME280;1558;42.700;23.360;2023-05-09T12:09:04;95658.56;;;15.24;92.82
3096;BME280;1558;42.700;23.360;2023-05-09T12:11:36;95646.06;;;14.88;95.18
3096;BME280;1558;42.700;23.360;2023-05-09T12:14:04;95643.22;;;15.00;95.95
3096;BME280;1558;42.700;23.360;2023-05-09T12:16:32;95596.84;;;14.31;98.15
3096;BME280;1558;42.700;23.360;2023-05-09T12:19:00;95651.13;;;14.31;100.00
3096;BME280;1558;42.700;23.360;2023-05-09T12:21:29;95623.94;;;14.43;100.00
3096;BME280;1558;42.700;23.360;2023-05-09T12:23:59;95619.25;;;14.43;99.97
3096;BME280;1558;42.700;23.360;2023-05-09T12:26:27;95599.22;;;14.48;98.87
3096;BME280;1558;42.700;23.360;2023-05-09T12:28:57;95659.34;;;14.62;98.35
3096;BME280;1558;42.700;23.360;2023-05-09T12:31:26;95646.44;;;14.03;100.00
3096;BME280;1558;42.700;23.360;2023-05-09T12:33:54;95650.22;;;13.87;100.00
3096;BME280;1558;42.700;23.360;2023-05-09T12:36:22;95646.69;;;13.98;100.00
3096;BME280;1558;42.700;23.360;2023-05-09T12:38:52;95655.16;;;13.97;100.00
3096;BME280;1558;42.700;23.360;2023-05-09T12:41:21;95653.41;;;13.65;100.00
3096;BME280;1558;42.700;23.360;2023-05-09T12:43:53;95656.69;;;13.70;100.00
3096;BME280;1558;42.700;23.360;2023-05-09T12:46:23;95660.19;;;13.83;100.00
3096;BME280;1558;42.700;23.360;2023-05-09T12:48:51;95640.59;;;13.49;100.00
3096;BME280;1558;42.700;23.360;2023-05-09T12:51:20;95625.59;;;13.16;100.00
3096;BME280;1558;42.700;23.360;2023-05-09T12:53:48;95627.28;;;13.08;100.00
3096;BME280;1558;42.700;23.360;2023-05-09T12:56:18;95620.81;;;12.88;100.00
3096;BME280;1558;42.700;23.360;2023-05-09T12:58:49;95655.25;;;13.00;100.00
3096;BME280;1558;42.700;23.360;2023-05-09T13:01:18;95594.22;;;12.90;100.00
3096;BME280;1558;42.700;23.360;2023-05-09T13:03:52;95640.16;;;13.11;100.00
3096;BME280;1558;42.700;23.360;2023-05-09T13:06:20;95647.00;;;12.84;100.00
3096;BME280;1558;42.700;23.360;2023-05-09T13:08:56;95644.28;;;12.84;100.00
3096;BME280;1558;42.700;23.360;2023-05-09T13:11:26;95631.91;;;12.83;100.00
3096;BME280;1558;42.700;23.360;2023-05-09T13:13:54;95639.31;;;12.86;100.00
3096;BME280;1558;42.700;23.360;2023-05-09T13:16:25;95625.09;;;12.77;100.00
3096;BME280;1558;42.700;23.360;2023-05-09T13:18:54;95589.56;;;12.55;100.00